sensor_id;sensor_type;location;lat;lon;timestamp;P1;durP1;ratioP1;P2;durP2;ratioP2
77586;SDS011;66744;49.716;17.158;2024-03-08T00:00:01;28.67;;;14.60;;
77586;SDS011;66744;49.716;17.158;2024-03-08T00:03:16;27.33;;;14.80;;
77586;SDS011;66744;49.716;17.158;2024-03-08T00:06:23;27.90;;;14.18;;
77586;SDS011;66744;49.716;17.158;2024-03-08T00:09:25;23.60;;;13.73;;
77586;SDS011;66744;49.716;17.158;2024-03-08T00:12:29;28.10;;;14.70;;
77586;SDS011;66744;49.716;17.158;2024-03-08T00:15:32;27.25;;;13.30;;
77586;SDS011;66744;49.716;17.158;2024-03-08T00:18:35;27.17;;;13.05;;
77586;SDS011;66744;49.716;17.158;2024-03-08T00:21:40;23.35;;;12.55;;
77586;SDS011;66744;49.716;17.158;2024-03-08T00:24:43;24.85;;;13.30;;
77586;SDS011;66744;49.716;17.158;2024-03-08T00:27:46;25.95;;;13.95;;
77586;SDS011;66744;49.716;17.158;2024-03-08T00:30:51;23.50;;;13.48;;
77586;SDS011;66744;49.716;17.158;2024-03-08T00:33:55;24.05;;;14.63;;
77586;SDS011;66744;49.716;17.158;2024-03-08T00:36:58;28.55;;;14.80;;
77586;SDS011;66744;49.716;17.158;2024-03-08T00:40:04;27.63;;;14.30;;
77586;SDS011;66744;49.716;17.158;2024-03-08T00:43:08;25.92;;;14.05;;
77586;SDS011;66744;49.716;17.158;2024-03-08T00:46:11;22.92;;;13.25;;
77586;SDS011;66744;49.716;17.158;2024-03-08T00:49:13;29.08;;;15.00;;
77586;SDS011;66744;49.716;17.158;2024-03-08T00:52:17;26.10;;;13.32;;
77586;SDS011;66744;49.716;17.158;2024-03-08T00:55:23;27.23;;;14.93;;
77586;SDS011;66744;49.716;17.158;2024-03-08T00:58:28;31.92;;;16.05;;
77586;SDS011;66744;49.716;17.158;2024-03-08T01:01:35;26.95;;;15.50;;
77586;SDS011;66744;49.716;17.158;2024-03-08T01:04:42;29.00;;;14.98;;
77586;SDS011;66744;49.716;17.158;2024-03-08T01:07:45;31.77;;;15.05;;
77586;SDS011;66744;49.716;17.158;2024-03-08T01:10:48;28.65;;;15.18;;
77586;SDS011;66744;49.716;17.158;2024-03-08T01:13:53;26.33;;;14.75;;
77586;SDS011;66744;49.716;17.158;2024-03-08T01:16:55;28.30;;;14.27;;
77586;SDS011;66744;49.716;17.158;2024-03-08T01:19:59;29.00;;;15.82;;
77586;SDS011;66744;49.716;17.158;2024-03-08T01:23:05;30.90;;;15.82;;
77586;SDS011;66744;49.716;17.158;2024-03-08T01:26:08;29.40;;;14.88;;
77586;SDS011;66744;49.716;17.158;2024-03-08T01:29:10;27.67;;;14.52;;
77586;SDS011;66744;49.716;17.158;2024-03-08T01:32:12;30.45;;;15.02;;
77586;SDS011;66744;49.716;17.158;2024-03-08T01:35:17;29.70;;;15.48;;
77586;SDS011;66744;49.716;17.158;2024-03-08T01:38:20;31.48;;;15.10;;
77586;SDS011;66744;49.716;17.158;2024-03-08T01:41:24;25.48;;;13.50;;
77586;SDS011;66744;49.716;17.158;2024-03-08T01:44:26;30.60;;;15.27;;
77586;SDS011;66744;49.716;17.158;2024-03-08T01:47:30;27.08;;;14.65;;
77586;SDS011;66744;49.716;17.158;2024-03-08T01:50:35;30.42;;;15.32;;
77586;SDS011;66744;49.716;17.158;2024-03-08T01:53:37;36.15;;;15.77;;
77586;SDS011;66744;49.716;17.158;2024-03-08T01:56:40;31.15;;;16.45;;
77586;SDS011;66744;49.716;17.158;2024-03-08T01:59:43;27.20;;;16.23;;
77586;SDS011;66744;49.716;17.158;2024-03-08T02:02:47;28.30;;;15.98;;
77586;SDS011;66744;49.716;17.158;2024-03-08T02:05:56;27.08;;;15.45;;
77586;SDS011;66744;49.716;17.158;2024-03-08T02:09:00;28.75;;;14.98;;
77586;SDS011;66744;49.716;17.158;2024-03-08T02:12:27;26.55;;;14.60;;
77586;SDS011;66744;49.716;17.158;2024-03-08T02:18:51;25.75;;;13.45;;
77586;SDS011;66744;49.716;17.158;2024-03-08T02:21:53;29.65;;;14.50;;
77586;SDS011;66744;49.716;17.158;2024-03-08T02:24:59;28.98;;;16.08;;
77586;SDS011;66744;49.716;17.158;2024-03-08T02:28:05;26.83;;;13.50;;
77586;SDS011;66744;49.716;17.158;2024-03-08T02:31:15;31.90;;;15.50;;
77586;SDS011;66744;49.716;17.158;2024-03-08T02:34:20;32.33;;;16.40;;
77586;SDS011;66744;49.716;17.158;2024-03-08T02:37:22;30.80;;;16.02;;
77586;SDS011;66744;49.716;17.158;2024-03-08T02:40:28;30.90;;;15.13;;
77586;SDS011;66744;49.716;17.158;2024-03-08T02:43:37;31.08;;;15.48;;
77586;SDS011;66744;49.716;17.158;2024-03-08T02:46:39;28.92;;;13.82;;
77586;SDS011;66744;49.716;17.158;2024-03-08T02:49:42;27.55;;;13.75;;
77586;SDS011;66744;49.716;17.158;2024-03-08T02:52:45;29.58;;;15.25;;
77586;SDS011;66744;49.716;17.158;2024-03-08T02:55:50;28.00;;;14.18;;
77586;SDS011;66744;49.716;17.158;2024-03-08T02:58:54;29.85;;;14.77;;
77586;SDS011;66744;49.716;17.158;2024-03-08T03:01:56;27.95;;;13.45;;
77586;SDS011;66744;49.716;17.158;2024-03-08T03:05:01;28.08;;;15.50;;
77586;SDS011;66744;49.716;17.158;2024-03-08T03:08:08;28.80;;;15.85;;
77586;SDS011;66744;49.716;17.158;2024-03-08T03:11:10;28.33;;;15.32;;
77586;SDS011;66744;49.716;17.158;2024-03-08T03:14:15;25.17;;;13.00;;
77586;SDS011;66744;49.716;17.158;2024-03-08T03:17:19;29.85;;;15.43;;
77586;SDS011;66744;49.716;17.158;2024-03-08T03:20:21;28.63;;;15.80;;
77586;SDS011;66744;49.716;17.158;2024-03-08T03:23:29;31.52;;;15.93;;
77586;SDS011;66744;49.716;17.158;2024-03-08T03:26:40;33.78;;;16.48;;
77586;SDS011;66744;49.716;17.158;2024-03-08T03:29:44;26.38;;;14.38;;
77586;SDS011;66744;49.716;17.158;2024-03-08T03:32:53;32.15;;;14.63;;
77586;SDS011;66744;49.716;17.158;2024-03-08T03:36:00;26.63;;;13.57;;
77586;SDS011;66744;49.716;17.158;2024-03-08T03:39:03;28.55;;;13.55;;
77586;SDS011;66744;49.716;17.158;2024-03-08T03:42:27;27.02;;;13.50;;
77586;SDS011;66744;49.716;17.158;2024-03-08T03:45:30;32.53;;;15.15;;
77586;SDS011;66744;49.716;17.158;2024-03-08T03:51:38;32.47;;;14.65;;
77586;SDS011;66744;49.716;17.158;2024-03-08T03:54:40;29.75;;;14.98;;
77586;SDS011;66744;49.716;17.158;2024-03-08T03:57:41;28.48;;;14.55;;
77586;SDS011;66744;49.716;17.158;2024-03-08T04:00:45;34.28;;;16.38;;
77586;SDS011;66744;49.716;17.158;2024-03-08T04:03:46;25.80;;;13.65;;
77586;SDS011;66744;49.716;17.158;2024-03-08T04:06:48;28.92;;;14.75;;
77586;SDS011;66744;49.716;17.158;2024-03-08T04:09:52;33.25;;;14.45;;
77586;SDS011;66744;49.716;17.158;2024-03-08T04:12:54;27.65;;;14.02;;
77586;SDS011;66744;49.716;17.158;2024-03-08T04:15:57;28.02;;;15.25;;
77586;SDS011;66744;49.716;17.158;2024-03-08T04:18:59;25.65;;;13.27;;
77586;SDS011;66744;49.716;17.158;2024-03-08T04:22:01;32.30;;;15.20;;
77586;SDS011;66744;49.716;17.158;2024-03-08T04:25:06;30.90;;;14.75;;
77586;SDS011;66744;49.716;17.158;2024-03-08T04:28:08;25.23;;;14.30;;
77586;SDS011;66744;49.716;17.158;2024-03-08T04:31:13;28.20;;;14.18;;
77586;SDS011;66744;49.716;17.158;2024-03-08T04:34:16;32.95;;;16.65;;
77586;SDS011;66744;49.716;17.158;2024-03-08T04:37:18;25.33;;;13.75;;
77586;SDS011;66744;49.716;17.158;2024-03-08T04:40:23;25.10;;;13.48;;
77586;SDS011;66744;49.716;17.158;2024-03-08T04:43:24;34.33;;;14.63;;
77586;SDS011;66744;49.716;17.158;2024-03-08T04:46:27;22.38;;;12.65;;
77586;SDS011;66744;49.716;17.158;2024-03-08T04:49:29;28.35;;;14.88;;
77586;SDS011;66744;49.716;17.158;2024-03-08T04:52:34;31.60;;;15.23;;
77586;SDS011;66744;49.716;17.158;2024-03-08T04:55:37;25.50;;;13.15;;
77586;SDS011;66744;49.716;17.158;2024-03-08T04:58:39;25.80;;;13.95;;
77586;SDS011;66744;49.716;17.158;2024-03-08T05:01:43;26.52;;;13.88;;
77586;SDS011;66744;49.716;17.158;2024-03-08T05:04:44;25.08;;;14.13;;
77586;SDS011;66744;49.716;17.158;2024-03-08T05:07:46;33.72;;;17.38;;
77586;SDS011;66744;49.716;17.158;2024-03-08T05:10:49;29.80;;;14.55;;
77586;SDS011;66744;49.716;17.158;2024-03-08T05:13:51;26.13;;;12.95;;
77586;SDS011;66744;49.716;17.158;2024-03-08T05:16:53;27.67;;;14.00;;
77586;SDS011;66744;49.716;17.158;2024-03-08T05:19:55;27.23;;;15.45;;
77586;SDS011;66744;49.716;17.158;2024-03-08T05:22:56;29.15;;;14.27;;
77586;SDS011;66744;49.716;17.158;2024-03-08T05:26:01;29.92;;;15.02;;
77586;SDS011;66744;49.716;17.158;2024-03-08T05:29:07;25.10;;;13.43;;
77586;SDS011;66744;49.716;17.158;2024-03-08T05:32:12;29.60;;;14.15;;
77586;SDS011;66744;49.716;17.158;2024-03-08T05:35:15;26.70;;;13.88;;
77586;SDS011;66744;49.716;17.158;2024-03-08T05:38:20;27.75;;;13.98;;
77586;SDS011;66744;49.716;17.158;2024-03-08T05:41:22;28.83;;;14.27;;
77586;SDS011;66744;49.716;17.158;2024-03-08T05:44:24;26.20;;;12.93;;
77586;SDS011;66744;49.716;17.158;2024-03-08T05:47:33;27.23;;;13.80;;
77586;SDS011;66744;49.716;17.158;2024-03-08T05:50:40;26.30;;;11.85;;
77586;SDS011;66744;49.716;17.158;2024-03-08T05:53:46;27.30;;;12.65;;
77586;SDS011;66744;49.716;17.158;2024-03-08T05:56:47;29.58;;;15.52;;
77586;SDS011;66744;49.716;17.158;2024-03-08T05:59:53;30.60;;;15.35;;
77586;SDS011;66744;49.716;17.158;2024-03-08T06:02:54;33.63;;;15.07;;
77586;SDS011;66744;49.716;17.158;2024-03-08T06:05:56;24.85;;;13.15;;
77586;SDS011;66744;49.716;17.158;2024-03-08T06:09:00;34.03;;;16.25;;
77586;SDS011;66744;49.716;17.158;2024-03-08T06:12:14;32.40;;;16.77;;
77586;SDS011;66744;49.716;17.158;2024-03-08T06:15:23;31.67;;;17.77;;
77586;SDS011;66744;49.716;17.158;2024-03-08T06:18:28;38.38;;;18.27;;
77586;SDS011;66744;49.716;17.158;2024-03-08T06:21:29;45.42;;;18.08;;
77586;SDS011;66744;49.716;17.158;2024-03-08T06:24:32;41.90;;;18.35;;
77586;SDS011;66744;49.716;17.158;2024-03-08T06:27:35;41.80;;;19.90;;
77586;SDS011;66744;49.716;17.158;2024-03-08T06:30:46;41.17;;;20.70;;
77586;SDS011;66744;49.716;17.158;2024-03-08T06:33:48;35.20;;;17.88;;
77586;SDS011;66744;49.716;17.158;2024-03-08T06:36:55;39.33;;;19.70;;
77586;SDS011;66744;49.716;17.158;2024-03-08T06:40:02;38.00;;;18.27;;
77586;SDS011;66744;49.716;17.158;2024-03-08T06:43:09;33.10;;;17.38;;
77586;SDS011;66744;49.716;17.158;2024-03-08T06:46:12;36.65;;;16.80;;
77586;SDS011;66744;49.716;17.158;2024-03-08T06:49:21;30.42;;;15.80;;
77586;SDS011;66744;49.716;17.158;2024-03-08T06:52:23;29.65;;;15.65;;
77586;SDS011;66744;49.716;17.158;2024-03-08T06:55:25;32.03;;;16.55;;
77586;SDS011;66744;49.716;17.158;2024-03-08T06:58:27;31.33;;;16.55;;
77586;SDS011;66744;49.716;17.158;2024-03-08T07:01:29;30.70;;;16.10;;
77586;SDS011;66744;49.716;17.158;2024-03-08T07:04:53;29.85;;;15.32;;
77586;SDS011;66744;49.716;17.158;2024-03-08T07:08:10;32.33;;;17.58;;
77586;SDS011;66744;49.716;17.158;2024-03-08T07:11:15;34.97;;;17.50;;
77586;SDS011;66744;49.716;17.158;2024-03-08T07:14:22;37.92;;;18.80;;
77586;SDS011;66744;49.716;17.158;2024-03-08T07:17:26;35.20;;;18.55;;
77586;SDS011;66744;49.716;17.158;2024-03-08T07:20:28;34.65;;;17.45;;
77586;SDS011;66744;49.716;17.158;2024-03-08T07:23:30;34.53;;;18.67;;
77586;SDS011;66744;49.716;17.158;2024-03-08T07:27:00;34.85;;;17.38;;
77586;SDS011;66744;49.716;17.158;2024-03-08T07:30:02;36.53;;;19.02;;
77586;SDS011;66744;49.716;17.158;2024-03-08T07:33:10;33.70;;;17.63;;
77586;SDS011;66744;49.716;17.158;2024-03-08T07:36:13;34.60;;;18.25;;
77586;SDS011;66744;49.716;17.158;2024-03-08T07:39:16;35.67;;;17.42;;
77586;SDS011;66744;49.716;17.158;2024-03-08T07:42:19;33.92;;;17.42;;
77586;SDS011;66744;49.716;17.158;2024-03-08T07:45:22;39.58;;;19.45;;
77586;SDS011;66744;49.716;17.158;2024-03-08T07:48:25;30.25;;;15.82;;
77586;SDS011;66744;49.716;17.158;2024-03-08T07:51:27;34.92;;;17.58;;
77586;SDS011;66744;49.716;17.158;2024-03-08T07:54:30;36.92;;;18.73;;
77586;SDS011;66744;49.716;17.158;2024-03-08T07:57:32;34.65;;;19.45;;
77586;SDS011;66744;49.716;17.158;2024-03-08T08:00:40;31.67;;;16.92;;
77586;SDS011;66744;49.716;17.158;2024-03-08T08:03:49;34.95;;;17.65;;
77586;SDS011;66744;49.716;17.158;2024-03-08T08:06:55;38.22;;;18.73;;
77586;SDS011;66744;49.716;17.158;2024-03-08T08:09:58;31.30;;;17.23;;
77586;SDS011;66744;49.716;17.158;2024-03-08T08:13:00;33.58;;;17.48;;
77586;SDS011;66744;49.716;17.158;2024-03-08T08:16:08;33.05;;;17.67;;
77586;SDS011;66744;49.716;17.158;2024-03-08T08:19:10;36.67;;;18.25;;
77586;SDS011;66744;49.716;17.158;2024-03-08T08:22:12;38.42;;;18.25;;
77586;SDS011;66744;49.716;17.158;2024-03-08T08:25:14;38.10;;;19.42;;
77586;SDS011;66744;49.716;17.158;2024-03-08T08:28:19;37.25;;;18.27;;
77586;SDS011;66744;49.716;17.158;2024-03-08T08:31:20;34.40;;;17.13;;
77586;SDS011;66744;49.716;17.158;2024-03-08T08:34:22;34.78;;;18.05;;
77586;SDS011;66744;49.716;17.158;2024-03-08T08:37:31;31.02;;;17.17;;
77586;SDS011;66744;49.716;17.158;2024-03-08T08:40:37;35.28;;;17.75;;
77586;SDS011;66744;49.716;17.158;2024-03-08T08:43:40;32.65;;;16.42;;
77586;SDS011;66744;49.716;17.158;2024-03-08T08:46:47;34.00;;;16.70;;
77586;SDS011;66744;49.716;17.158;2024-03-08T08:49:52;31.45;;;16.65;;
77586;SDS011;66744;49.716;17.158;2024-03-08T08:52:55;32.55;;;16.73;;
77586;SDS011;66744;49.716;17.158;2024-03-08T08:55:58;33.95;;;16.25;;
77586;SDS011;66744;49.716;17.158;2024-03-08T08:59:05;32.95;;;16.52;;
77586;SDS011;66744;49.716;17.158;2024-03-08T09:02:06;36.28;;;18.75;;
77586;SDS011;66744;49.716;17.158;2024-03-08T09:05:09;29.48;;;16.38;;
77586;SDS011;66744;49.716;17.158;2024-03-08T09:08:12;30.02;;;15.90;;
77586;SDS011;66744;49.716;17.158;2024-03-08T09:11:14;33.58;;;16.52;;
77586;SDS011;66744;49.716;17.158;2024-03-08T09:14:23;31.65;;;17.13;;
77586;SDS011;66744;49.716;17.158;2024-03-08T09:17:48;30.85;;;16.88;;
77586;SDS011;66744;49.716;17.158;2024-03-08T09:20:52;31.50;;;17.13;;
77586;SDS011;66744;49.716;17.158;2024-03-08T09:23:55;27.67;;;16.50;;
77586;SDS011;66744;49.716;17.158;2024-03-08T09:26:57;31.85;;;17.30;;
77586;SDS011;66744;49.716;17.158;2024-03-08T09:30:11;27.05;;;16.35;;
77586;SDS011;66744;49.716;17.158;2024-03-08T09:33:19;30.85;;;15.38;;
77586;SDS011;66744;49.716;17.158;2024-03-08T09:36:25;32.20;;;17.25;;
77586;SDS011;66744;49.716;17.158;2024-03-08T09:39:27;30.52;;;15.70;;
77586;SDS011;66744;49.716;17.158;2024-03-08T09:42:33;32.47;;;17.33;;
77586;SDS011;66744;49.716;17.158;2024-03-08T09:45:38;29.35;;;15.55;;
77586;SDS011;66744;49.716;17.158;2024-03-08T09:48:42;30.58;;;16.58;;
77586;SDS011;66744;49.716;17.158;2024-03-08T09:51:44;34.70;;;16.67;;
77586;SDS011;66744;49.716;17.158;2024-03-08T09:54:48;28.17;;;16.17;;
77586;SDS011;66744;49.716;17.158;2024-03-08T09:57:52;32.42;;;17.42;;
77586;SDS011;66744;49.716;17.158;2024-03-08T10:01:18;28.90;;;15.45;;
77586;SDS011;66744;49.716;17.158;2024-03-08T10:04:26;31.98;;;17.20;;
77586;SDS011;66744;49.716;17.158;2024-03-08T10:07:29;28.10;;;15.68;;
77586;SDS011;66744;49.716;17.158;2024-03-08T10:10:31;31.80;;;17.38;;
77586;SDS011;66744;49.716;17.158;2024-03-08T10:16:42;31.73;;;16.83;;
77586;SDS011;66744;49.716;17.158;2024-03-08T10:19:50;28.73;;;15.20;;
77586;SDS011;66744;49.716;17.158;2024-03-08T10:22:57;32.33;;;17.17;;
77586;SDS011;66744;49.716;17.158;2024-03-08T10:26:09;34.55;;;18.55;;
77586;SDS011;66744;49.716;17.158;2024-03-08T10:29:19;32.28;;;16.52;;
77586;SDS011;66744;49.716;17.158;2024-03-08T10:32:21;34.55;;;17.38;;
77586;SDS011;66744;49.716;17.158;2024-03-08T10:35:33;34.15;;;16.92;;
77586;SDS011;66744;49.716;17.158;2024-03-08T10:38:43;35.67;;;18.25;;
77586;SDS011;66744;49.716;17.158;2024-03-08T10:41:52;29.42;;;16.17;;
77586;SDS011;66744;49.716;17.158;2024-03-08T10:48:43;30.00;;;16.15;;
77586;SDS011;66744;49.716;17.158;2024-03-08T10:51:47;31.95;;;16.88;;
77586;SDS011;66744;49.716;17.158;2024-03-08T10:54:55;31.65;;;17.70;;
77586;SDS011;66744;49.716;17.158;2024-03-08T10:58:02;32.75;;;18.02;;
77586;SDS011;66744;49.716;17.158;2024-03-08T11:01:05;34.55;;;18.50;;
77586;SDS011;66744;49.716;17.158;2024-03-08T11:04:24;31.95;;;16.88;;
77586;SDS011;66744;49.716;17.158;2024-03-08T11:07:26;31.63;;;17.63;;
77586;SDS011;66744;49.716;17.158;2024-03-08T11:10:31;31.35;;;15.32;;
77586;SDS011;66744;49.716;17.158;2024-03-08T11:13:37;29.23;;;17.38;;
77586;SDS011;66744;49.716;17.158;2024-03-08T11:16:44;27.50;;;14.95;;
77586;SDS011;66744;49.716;17.158;2024-03-08T11:19:46;25.70;;;13.63;;
77586;SDS011;66744;49.716;17.158;2024-03-08T11:22:49;27.83;;;15.60;;
77586;SDS011;66744;49.716;17.158;2024-03-08T11:25:53;28.60;;;15.23;;
77586;SDS011;66744;49.716;17.158;2024-03-08T11:32:34;28.40;;;15.57;;
77586;SDS011;66744;49.716;17.158;2024-03-08T11:35:36;27.88;;;15.60;;
77586;SDS011;66744;49.716;17.158;2024-03-08T11:38:40;30.25;;;16.20;;
77586;SDS011;66744;49.716;17.158;2024-03-08T11:41:43;30.77;;;16.83;;
77586;SDS011;66744;49.716;17.158;2024-03-08T11:44:47;30.88;;;16.38;;
77586;SDS011;66744;49.716;17.158;2024-03-08T11:47:51;30.88;;;16.40;;
77586;SDS011;66744;49.716;17.158;2024-03-08T11:51:04;25.95;;;15.02;;
77586;SDS011;66744;49.716;17.158;2024-03-08T11:54:11;25.10;;;14.40;;
77586;SDS011;66744;49.716;17.158;2024-03-08T11:57:20;26.75;;;13.52;;
77586;SDS011;66744;49.716;17.158;2024-03-08T12:00:25;22.90;;;13.60;;
77586;SDS011;66744;49.716;17.158;2024-03-08T12:03:30;28.60;;;14.82;;
77586;SDS011;66744;49.716;17.158;2024-03-08T12:06:38;25.98;;;14.13;;
77586;SDS011;66744;49.716;17.158;2024-03-08T12:09:44;26.52;;;13.32;;
77586;SDS011;66744;49.716;17.158;2024-03-08T12:13:18;31.38;;;16.00;;
77586;SDS011;66744;49.716;17.158;2024-03-08T12:16:20;30.85;;;16.80;;
77586;SDS011;66744;49.716;17.158;2024-03-08T12:19:22;28.92;;;15.50;;
77586;SDS011;66744;49.716;17.158;2024-03-08T12:22:25;28.05;;;15.23;;
77586;SDS011;66744;49.716;17.158;2024-03-08T12:25:30;21.83;;;13.27;;
77586;SDS011;66744;49.716;17.158;2024-03-08T12:28:40;29.25;;;14.82;;
77586;SDS011;66744;49.716;17.158;2024-03-08T12:31:42;27.65;;;14.02;;
77586;SDS011;66744;49.716;17.158;2024-03-08T12:34:43;29.00;;;15.18;;
77586;SDS011;66744;49.716;17.158;2024-03-08T12:37:54;24.70;;;14.50;;
77586;SDS011;66744;49.716;17.158;2024-03-08T12:41:00;30.85;;;15.80;;
77586;SDS011;66744;49.716;17.158;2024-03-08T12:44:05;29.23;;;16.92;;
77586;SDS011;66744;49.716;17.158;2024-03-08T12:47:08;27.15;;;14.45;;
77586;SDS011;66744;49.716;17.158;2024-03-08T12:50:10;29.13;;;15.40;;
77586;SDS011;66744;49.716;17.158;2024-03-08T12:53:15;27.00;;;14.77;;
77586;SDS011;66744;49.716;17.158;2024-03-08T12:56:36;29.50;;;15.35;;
77586;SDS011;66744;49.716;17.158;2024-03-08T12:59:38;32.55;;;18.60;;
77586;SDS011;66744;49.716;17.158;2024-03-08T13:02:47;34.38;;;17.92;;
77586;SDS011;66744;49.716;17.158;2024-03-08T13:05:48;29.02;;;16.90;;
77586;SDS011;66744;49.716;17.158;2024-03-08T13:08:51;31.08;;;16.85;;
77586;SDS011;66744;49.716;17.158;2024-03-08T13:11:56;27.73;;;16.15;;
77586;SDS011;66744;49.716;17.158;2024-03-08T13:14:59;27.42;;;15.50;;
77586;SDS011;66744;49.716;17.158;2024-03-08T13:18:01;31.23;;;17.15;;
77586;SDS011;66744;49.716;17.158;2024-03-08T13:21:05;31.73;;;17.45;;
77586;SDS011;66744;49.716;17.158;2024-03-08T13:24:08;32.40;;;17.98;;
77586;SDS011;66744;49.716;17.158;2024-03-08T13:27:09;34.15;;;18.30;;
77586;SDS011;66744;49.716;17.158;2024-03-08T13:30:23;29.80;;;16.67;;
77586;SDS011;66744;49.716;17.158;2024-03-08T13:33:27;34.58;;;18.73;;
77586;SDS011;66744;49.716;17.158;2024-03-08T13:36:29;32.58;;;17.23;;
77586;SDS011;66744;49.716;17.158;2024-03-08T13:39:40;30.67;;;18.10;;
77586;SDS011;66744;49.716;17.158;2024-03-08T13:42:47;28.23;;;15.70;;
77586;SDS011;66744;49.716;17.158;2024-03-08T13:45:52;30.60;;;17.27;;
77586;SDS011;66744;49.716;17.158;2024-03-08T13:48:53;29.27;;;16.55;;
77586;SDS011;66744;49.716;17.158;2024-03-08T13:52:05;27.42;;;15.15;;
77586;SDS011;66744;49.716;17.158;2024-03-08T13:55:09;27.10;;;14.25;;
77586;SDS011;66744;49.716;17.158;2024-03-08T13:58:11;22.52;;;13.27;;
77586;SDS011;66744;49.716;17.158;2024-03-08T14:01:15;22.75;;;12.73;;
77586;SDS011;66744;49.716;17.158;2024-03-08T14:04:21;27.00;;;15.20;;
77586;SDS011;66744;49.716;17.158;2024-03-08T14:07:22;33.85;;;19.23;;
77586;SDS011;66744;49.716;17.158;2024-03-08T14:10:24;29.77;;;16.90;;
77586;SDS011;66744;49.716;17.158;2024-03-08T14:13:25;29.58;;;15.02;;
77586;SDS011;66744;49.716;17.158;2024-03-08T14:16:27;28.17;;;16.23;;
77586;SDS011;66744;49.716;17.158;2024-03-08T14:19:28;30.48;;;17.42;;
77586;SDS011;66744;49.716;17.158;2024-03-08T14:22:31;30.33;;;15.23;;
77586;SDS011;66744;49.716;17.158;2024-03-08T14:25:32;24.15;;;14.93;;
77586;SDS011;66744;49.716;17.158;2024-03-08T14:28:34;31.25;;;17.52;;
77586;SDS011;66744;49.716;17.158;2024-03-08T14:31:38;31.10;;;17.05;;
77586;SDS011;66744;49.716;17.158;2024-03-08T14:34:41;42.50;;;22.95;;
77586;SDS011;66744;49.716;17.158;2024-03-08T14:37:43;39.03;;;20.48;;
77586;SDS011;66744;49.716;17.158;2024-03-08T14:40:44;35.33;;;18.83;;
77586;SDS011;66744;49.716;17.158;2024-03-08T14:43:48;33.92;;;18.35;;
77586;SDS011;66744;49.716;17.158;2024-03-08T14:46:50;31.58;;;16.80;;
77586;SDS011;66744;49.716;17.158;2024-03-08T14:49:55;30.13;;;17.23;;
77586;SDS011;66744;49.716;17.158;2024-03-08T14:52:56;49.17;;;24.73;;
77586;SDS011;66744;49.716;17.158;2024-03-08T14:55:57;41.67;;;21.23;;
77586;SDS011;66744;49.716;17.158;2024-03-08T14:59:00;36.80;;;20.50;;
77586;SDS011;66744;49.716;17.158;2024-03-08T15:02:05;37.42;;;18.50;;
77586;SDS011;66744;49.716;17.158;2024-03-08T15:05:08;34.33;;;18.58;;
77586;SDS011;66744;49.716;17.158;2024-03-08T15:08:15;30.83;;;16.95;;
77586;SDS011;66744;49.716;17.158;2024-03-08T15:11:20;30.63;;;17.80;;
77586;SDS011;66744;49.716;17.158;2024-03-08T15:14:26;28.90;;;16.17;;
77586;SDS011;66744;49.716;17.158;2024-03-08T15:17:27;30.38;;;16.02;;
77586;SDS011;66744;49.716;17.158;2024-03-08T15:20:29;28.58;;;15.52;;
77586;SDS011;66744;49.716;17.158;2024-03-08T15:23:35;30.75;;;15.07;;
77586;SDS011;66744;49.716;17.158;2024-03-08T15:26:37;28.40;;;16.00;;
77586;SDS011;66744;49.716;17.158;2024-03-08T15:29:39;27.25;;;16.25;;
77586;SDS011;66744;49.716;17.158;2024-03-08T15:32:44;30.35;;;17.40;;
77586;SDS011;66744;49.716;17.158;2024-03-08T15:35:48;30.80;;;16.08;;
77586;SDS011;66744;49.716;17.158;2024-03-08T15:38:52;30.17;;;16.77;;
77586;SDS011;66744;49.716;17.158;2024-03-08T15:41:53;37.58;;;17.23;;
77586;SDS011;66744;49.716;17.158;2024-03-08T15:44:56;33.88;;;18.30;;
77586;SDS011;66744;49.716;17.158;2024-03-08T15:47:57;32.65;;;17.13;;
77586;SDS011;66744;49.716;17.158;2024-03-08T15:51:01;30.90;;;17.65;;
77586;SDS011;66744;49.716;17.158;2024-03-08T15:54:06;35.58;;;18.92;;
77586;SDS011;66744;49.716;17.158;2024-03-08T15:57:08;30.55;;;16.42;;
77586;SDS011;66744;49.716;17.158;2024-03-08T16:00:15;34.25;;;18.08;;
77586;SDS011;66744;49.716;17.158;2024-03-08T16:03:36;33.53;;;18.83;;
77586;SDS011;66744;49.716;17.158;2024-03-08T16:06:38;32.97;;;18.42;;
77586;SDS011;66744;49.716;17.158;2024-03-08T16:09:41;35.17;;;19.42;;
77586;SDS011;66744;49.716;17.158;2024-03-08T16:12:43;33.58;;;17.00;;
77586;SDS011;66744;49.716;17.158;2024-03-08T16:15:46;37.42;;;20.08;;
77586;SDS011;66744;49.716;17.158;2024-03-08T16:18:48;31.40;;;18.52;;
77586;SDS011;66744;49.716;17.158;2024-03-08T16:21:50;34.10;;;18.30;;
77586;SDS011;66744;49.716;17.158;2024-03-08T16:24:52;34.15;;;18.70;;
77586;SDS011;66744;49.716;17.158;2024-03-08T16:27:55;32.67;;;17.83;;
77586;SDS011;66744;49.716;17.158;2024-03-08T16:31:00;31.88;;;17.92;;
77586;SDS011;66744;49.716;17.158;2024-03-08T16:34:02;33.75;;;18.58;;
77586;SDS011;66744;49.716;17.158;2024-03-08T16:37:05;34.00;;;17.63;;
77586;SDS011;66744;49.716;17.158;2024-03-08T16:40:06;36.60;;;18.50;;
77586;SDS011;66744;49.716;17.158;2024-03-08T16:43:17;40.75;;;21.77;;
77586;SDS011;66744;49.716;17.158;2024-03-08T16:46:20;44.53;;;23.10;;
77586;SDS011;66744;49.716;17.158;2024-03-08T16:49:22;38.13;;;20.67;;
77586;SDS011;66744;49.716;17.158;2024-03-08T16:52:24;32.63;;;18.38;;
77586;SDS011;66744;49.716;17.158;2024-03-08T16:55:26;37.92;;;18.17;;
77586;SDS011;66744;49.716;17.158;2024-03-08T16:58:31;29.75;;;16.67;;
77586;SDS011;66744;49.716;17.158;2024-03-08T17:01:39;35.53;;;18.42;;
77586;SDS011;66744;49.716;17.158;2024-03-08T17:04:42;32.65;;;17.65;;
77586;SDS011;66744;49.716;17.158;2024-03-08T17:07:44;36.03;;;19.40;;
77586;SDS011;66744;49.716;17.158;2024-03-08T17:13:52;40.53;;;20.30;;
77586;SDS011;66744;49.716;17.158;2024-03-08T17:16:53;44.50;;;22.60;;
77586;SDS011;66744;49.716;17.158;2024-03-08T17:19:54;42.75;;;24.27;;
77586;SDS011;66744;49.716;17.158;2024-03-08T17:22:56;42.40;;;21.13;;
77586;SDS011;66744;49.716;17.158;2024-03-08T17:25:58;58.67;;;27.45;;
77586;SDS011;66744;49.716;17.158;2024-03-08T17:29:00;49.13;;;23.48;;
77586;SDS011;66744;49.716;17.158;2024-03-08T17:32:01;36.25;;;19.30;;
77586;SDS011;66744;49.716;17.158;2024-03-08T17:35:04;37.08;;;20.17;;
77586;SDS011;66744;49.716;17.158;2024-03-08T17:38:12;37.30;;;21.00;;
77586;SDS011;66744;49.716;17.158;2024-03-08T17:41:15;34.50;;;20.15;;
77586;SDS011;66744;49.716;17.158;2024-03-08T17:44:23;37.10;;;18.98;;
77586;SDS011;66744;49.716;17.158;2024-03-08T17:47:24;43.38;;;21.98;;
77586;SDS011;66744;49.716;17.158;2024-03-08T17:50:29;42.30;;;22.38;;
77586;SDS011;66744;49.716;17.158;2024-03-08T17:53:32;33.92;;;18.88;;
77586;SDS011;66744;49.716;17.158;2024-03-08T17:56:35;38.10;;;19.38;;
77586;SDS011;66744;49.716;17.158;2024-03-08T17:59:39;38.83;;;18.75;;
77586;SDS011;66744;49.716;17.158;2024-03-08T18:02:40;33.42;;;19.05;;